Time;durP1;ratioP1;P1;durP2;ratioP2;P2;SDS_P1;SDS_P2;PMS_P1;PMS_P2;Temp;Humidity;BMP_temperature;BMP_pressure;BME280_temperature;BME280_humidity;BME280_pressure;Samples;Min_cycle;Max_cycle;Signal;HPM_P1;HPM_P2
2023/12/19 00:00:03;;;;;;;4.03;2.80;;;;;;;2.04;80.04;96675.53;5026642;28;20209;-79
2023/12/19 00:02:28;;;;;;;6.03;3.20;;;;;;;2.02;79.42;96661.94;5026690;28;20182;-79
2023/12/19 00:04:53;;;;;;;3.13;2.40;;;;;;;2.01;78.96;96652.59;5013103;28;20206;-80
2023/12/19 00:07:19;;;;;;;3.30;2.67;;;;;;;2.02;79.18;96651.69;5018060;28;20194;-80
2023/12/19 00:09:44;;;;;;;6.13;3.60;;;;;;;1.95;78.92;96654.53;5027134;28;20195;-79
2023/12/19 00:12:10;;;;;;;5.33;3.43;;;;;;;2.04;78.87;96663.53;5025233;28;20189;-80
2023/12/19 00:14:35;;;;;;;6.27;3.60;;;;;;;2.02;78.60;96667.88;5027009;28;20230;-79
2023/12/19 00:17:01;;;;;;;5.80;2.87;;;;;;;1.93;78.48;96647.78;5018064;28;20201;-79
2023/12/19 00:19:26;;;;;;;4.63;2.97;;;;;;;1.92;78.70;96643.56;5026261;28;20186;-80
2023/12/19 00:21:51;;;;;;;3.80;2.60;;;;;;;1.91;78.75;96629.94;5024590;28;20179;-79
2023/12/19 00:24:16;;;;;;;3.00;2.37;;;;;;;1.87;79.23;96631.00;5021524;28;20198;-79
2023/12/19 00:26:42;;;;;;;5.40;2.63;;;;;;;1.78;78.84;96626.28;5027727;28;20207;-79
2023/12/19 00:29:07;;;;;;;2.27;1.90;;;;;;;1.78;77.73;96628.84;5007801;28;20561;-79
2023/12/19 00:31:33;;;;;;;1.70;1.60;;;;;;;1.89;74.65;96618.94;5029177;28;20222;-80
2023/12/19 00:33:58;;;;;;;2.37;1.73;;;;;;;2.05;73.24;96613.13;5016877;28;20198;-79
2023/12/19 00:36:24;;;;;;;2.57;1.50;;;;;;;2.14;73.12;96612.72;5017662;28;20222;-80
2023/12/19 00:38:49;;;;;;;1.83;1.60;;;;;;;2.17;72.71;96610.81;5032775;28;20273;-79
2023/12/19 00:41:16;;;;;;;2.67;1.97;;;;;;;2.16;73.11;96601.47;5026674;28;20569;-79
2023/12/19 00:43:44;;;;;;;1.80;1.60;;;;;;;2.20;72.16;96613.22;5020714;28;20254;-80
2023/12/19 00:46:10;;;;;;;2.60;1.70;;;;;;;2.22;69.91;96606.34;5023838;28;20735;-79
2023/12/19 00:48:36;;;;;;;3.93;1.70;;;;;;;2.34;68.41;96604.09;5020441;28;20206;-80
2023/12/19 00:51:01;;;;;;;1.50;1.40;;;;;;;2.48;66.59;96610.25;5015025;28;20278;-80
2023/12/19 00:53:27;;;;;;;1.57;1.33;;;;;;;2.59;66.06;96612.28;5038925;28;20245;-79
2023/12/19 00:55:52;;;;;;;1.77;1.67;;;;;;;2.70;65.12;96609.22;5024602;28;20300;-80
2023/12/19 00:58:20;;;;;;;3.67;1.63;;;;;;;2.74;65.22;96603.00;5015742;28;20536;-80
2023/12/19 01:00:45;;;;;;;2.57;1.67;;;;;;;2.76;65.20;96606.34;5029812;28;20693;-80
2023/12/19 01:03:11;;;;;;;2.10;1.70;;;;;;;2.74;65.28;96618.41;5012489;28;20186;-79
2023/12/19 01:05:36;;;;;;;2.30;1.70;;;;;;;2.65;65.69;96617.13;5026319;28;20594;-80
2023/12/19 01:08:01;;;;;;;1.77;1.57;;;;;;;2.60;65.74;96615.69;5012210;28;20191;-80
2023/12/19 01:10:27;;;;;;;1.73;1.63;;;;;;;2.54;65.86;96616.78;5025425;28;20314;-79
2023/12/19 01:12:52;;;;;;;2.50;1.70;;;;;;;2.44;67.01;96616.41;5026409;28;20858;-80
2023/12/19 01:15:17;;;;;;;3.37;1.80;;;;;;;2.24;67.96;96609.66;5015195;28;20618;-80
2023/12/19 01:17:43;;;;;;;2.33;1.60;;;;;;;2.26;67.35;96617.25;5024913;28;20913;-80
2023/12/19 01:20:09;;;;;;;1.83;1.53;;;;;;;2.22;67.65;96620.88;5013924;28;20194;-79
2023/12/19 01:22:34;;;;;;;1.50;1.40;;;;;;;2.16;68.17;96621.97;5024829;28;20191;-80
2023/12/19 01:25:00;;;;;;;3.73;1.60;;;;;;;2.09;68.55;96630.00;5024534;28;20293;-80
2023/12/19 01:27:25;;;;;;;2.10;1.60;;;;;;;2.02;68.73;96633.75;5027169;28;20186;-78
2023/12/19 01:29:50;;;;;;;2.67;1.90;;;;;;;1.92;69.94;96636.72;5028512;28;20254;-80
2023/12/19 01:32:16;;;;;;;1.93;1.60;;;;;;;1.86;69.58;96631.88;5019116;28;20199;-78
2023/12/19 01:34:41;;;;;;;3.03;1.93;;;;;;;1.83;69.92;96628.63;5020895;28;20645;-79
2023/12/19 01:37:07;;;;;;;3.60;2.53;;;;;;;1.81;70.25;96627.88;5027137;28;20269;-78
2023/12/19 01:39:32;;;;;;;2.93;2.40;;;;;;;1.74;70.85;96609.38;5025246;28;20681;-81
2023/12/19 01:41:57;;;;;;;3.27;2.50;;;;;;;1.80;70.80;96593.75;5022286;28;20178;-78
2023/12/19 01:44:25;;;;;;;2.83;2.17;;;;;;;1.86;70.52;96598.59;5027254;28;20309;-81
2023/12/19 01:46:50;;;;;;;3.40;1.60;;;;;;;1.80;70.74;96601.41;5024239;28;20210;-81
2023/12/19 01:49:16;;;;;;;3.03;2.10;;;;;;;1.72;71.04;96610.34;5023103;28;20269;-80
2023/12/19 01:51:41;;;;;;;3.23;1.97;;;;;;;1.65;71.42;96620.00;5024084;28;20705;-80
2023/12/19 01:54:07;;;;;;;1.93;1.60;;;;;;;1.63;71.65;96630.34;5023880;28;20206;-80
2023/12/19 01:56:33;;;;;;;2.67;1.70;;;;;;;1.57;71.95;96620.34;5029054;28;20202;-79
2023/12/19 01:59:02;;;;;;;1.77;1.67;;;;;;;1.51;73.05;96619.81;5016297;28;20178;-80
2023/12/19 02:01:28;;;;;;;2.37;1.63;;;;;;;1.46;72.85;96625.09;5028732;28;20199;-80
2023/12/19 02:03:53;;;;;;;1.80;1.53;;;;;;;1.40;72.96;96625.34;5028543;28;20276;-81
2023/12/19 02:06:19;;;;;;;3.27;1.90;;;;;;;1.42;72.63;96611.63;5023143;28;20202;-80
2023/12/19 02:08:44;;;;;;;2.43;2.23;;;;;;;1.53;72.45;96618.84;5009468;28;20657;-78
2023/12/19 02:11:10;;;;;;;2.50;2.30;;;;;;;1.52;72.87;96613.78;5023557;28;20640;-78
2023/12/19 02:13:37;;;;;;;5.63;2.00;;;;;;;1.44;73.19;96610.72;5029986;28;20209;-78
2023/12/19 02:16:03;;;;;;;2.87;2.00;;;;;;;1.49;72.91;96604.47;5031155;28;20202;-78
2023/12/19 02:18:28;;;;;;;2.43;1.93;;;;;;;1.50;72.33;96606.16;5027123;28;20704;-78
2023/12/19 02:20:54;;;;;;;6.70;2.00;;;;;;;1.45;72.73;96609.81;5031962;28;20205;-79
2023/12/19 02:23:20;;;;;;;2.03;1.77;;;;;;;1.39;72.93;96598.94;5025398;28;20552;-79
2023/12/19 02:25:46;;;;;;;2.10;1.83;;;;;;;1.30;73.45;96589.09;5032316;28;20203;-79
2023/12/19 02:28:12;;;;;;;2.80;2.00;;;;;;;1.27;74.11;96589.25;5018540;28;20190;-78
2023/12/19 02:30:38;;;;;;;2.73;2.07;;;;;;;1.27;73.74;96591.78;5015670;28;20565;-79
2023/12/19 02:33:04;;;;;;;3.87;2.10;;;;;;;1.27;73.92;96590.97;5022727;28;20182;-79
2023/12/19 02:35:30;;;;;;;2.47;1.93;;;;;;;1.28;74.42;96590.06;5028417;28;20687;-78
2023/12/19 02:37:55;;;;;;;2.70;2.07;;;;;;;1.27;74.02;96586.69;5032697;28;20220;-78
2023/12/19 02:40:21;;;;;;;2.13;1.80;;;;;;;1.27;74.18;96585.84;5031419;28;20703;-78
2023/12/19 02:42:46;;;;;;;1.90;1.60;;;;;;;1.28;74.15;96596.00;5017180;28;20433;-78
2023/12/19 02:45:12;;;;;;;2.73;1.70;;;;;;;1.21;74.56;96584.38;5032454;28;20198;-77
2023/12/19 02:47:38;;;;;;;2.20;2.00;;;;;;;1.25;74.23;96588.47;5035141;28;20652;-78
2023/12/19 02:50:03;;;;;;;2.27;1.80;;;;;;;1.24;74.60;96591.94;5013367;28;20175;-78
2023/12/19 02:52:29;;;;;;;2.27;2.03;;;;;;;1.23;74.62;96592.81;5028539;28;20282;-79
2023/12/19 02:54:54;;;;;;;2.80;2.10;;;;;;;1.13;74.84;96588.97;5032303;28;20185;-78
2023/12/19 02:57:20;;;;;;;4.17;2.17;;;;;;;1.07;75.28;96592.66;5030713;28;20221;-78
2023/12/19 02:59:45;;;;;;;1.97;1.67;;;;;;;1.05;75.31;96591.03;5026401;28;20199;-78
2023/12/19 03:02:10;;;;;;;2.33;1.57;;;;;;;1.08;75.35;96588.34;5030485;28;20182;-79
2023/12/19 03:04:38;;;;;;;2.40;1.83;;;;;;;1.07;75.35;96589.25;5029719;28;20190;-78
2023/12/19 03:07:03;;;;;;;2.80;1.90;;;;;;;1.09;75.15;96592.56;5025064;28;20300;-78
2023/12/19 03:09:28;;;;;;;2.77;1.87;;;;;;;1.09;75.00;96574.66;5033136;28;20187;-78
2023/12/19 03:12:03;;;;;;;2.33;1.87;;;;;;;1.05;74.99;96580.78;5029902;28;20185;-78
2023/12/19 03:14:29;;;;;;;3.07;1.83;;;;;;;1.01;75.30;96584.41;5030218;28;20186;-78
2023/12/19 03:16:54;;;;;;;2.23;1.83;;;;;;;0.94;75.73;96565.06;5028286;28;20268;-79
2023/12/19 03:19:20;;;;;;;3.13;1.80;;;;;;;0.97;75.46;96553.00;5025126;28;20183;-78
2023/12/19 03:21:45;;;;;;;3.63;2.10;;;;;;;1.01;75.28;96543.47;5011106;28;20211;-79
2023/12/19 03:24:10;;;;;;;3.03;2.17;;;;;;;1.01;75.00;96549.41;5024281;28;20182;-78
2023/12/19 03:26:36;;;;;;;3.07;2.13;;;;;;;1.05;75.58;96547.53;5015249;28;20216;-78
2023/12/19 03:29:01;;;;;;;3.43;2.03;;;;;;;1.01;75.94;96546.03;5029956;28;20217;-78
2023/12/19 03:31:26;;;;;;;2.70;2.20;;;;;;;1.02;75.78;96555.34;5033464;28;20237;-79
2023/12/19 03:33:52;;;;;;;3.47;2.43;;;;;;;0.98;75.46;96539.31;5024355;28;20179;-79
2023/12/19 03:36:17;;;;;;;2.83;2.07;;;;;;;0.98;75.17;96530.81;5032204;28;20234;-79
2023/12/19 03:38:43;;;;;;;4.63;2.20;;;;;;;0.96;75.34;96532.59;5026821;28;20211;-79
2023/12/19 03:41:08;;;;;;;2.77;2.10;;;;;;;0.93;75.23;96530.16;5030813;28;20198;-80
2023/12/19 03:43:36;;;;;;;2.87;1.83;;;;;;;0.89;75.99;96529.47;5041517;28;20209;-79
2023/12/19 03:46:04;;;;;;;3.47;2.10;;;;;;;0.88;75.54;96520.13;5031599;28;20206;-79
2023/12/19 03:48:30;;;;;;;2.20;1.93;;;;;;;0.93;75.51;96522.50;5025190;28;20277;-79
2023/12/19 03:50:56;;;;;;;3.27;1.90;;;;;;;0.90;75.33;96514.97;5029039;28;20186;-80
2023/12/19 03:53:21;;;;;;;2.53;2.20;;;;;;;0.99;74.83;96499.22;5030377;28;20186;-80
2023/12/19 03:55:47;;;;;;;5.30;1.97;;;;;;;0.96;73.75;96496.78;5031155;28;20207;-80
2023/12/19 03:58:12;;;;;;;2.37;1.63;;;;;;;1.00;73.84;96503.44;5020066;28;20175;-79
2023/12/19 04:00:38;;;;;;;2.43;1.70;;;;;;;1.00;74.01;96513.69;5028026;28;20226;-80
2023/12/19 04:03:03;;;;;;;2.60;1.87;;;;;;;0.93;74.10;96507.16;5034691;28;20187;-80
2023/12/19 04:05:29;;;;;;;2.90;2.10;;;;;;;0.86;74.05;96511.69;5027737;28;20568;-80
2023/12/19 04:07:54;;;;;;;2.23;2.00;;;;;;;0.92;73.60;96501.22;5022261;28;20226;-79
2023/12/19 04:10:19;;;;;;;1.90;1.70;;;;;;;0.94;73.81;96503.69;5027516;28;20637;-80
2023/12/19 04:12:45;;;;;;;4.33;1.90;;;;;;;0.84;73.56;96501.53;5028854;28;20601;-79
2023/12/19 04:15:10;;;;;;;2.33;2.00;;;;;;;0.89;73.30;96505.63;5031285;28;20198;-79
2023/12/19 04:17:35;;;;;;;2.03;1.83;;;;;;;0.88;72.62;96509.06;5025207;28;20257;-79
2023/12/19 04:20:03;;;;;;;2.20;1.80;;;;;;;0.87;73.28;96507.41;5018207;28;20212;-79
2023/12/19 04:22:30;;;;;;;2.17;1.73;;;;;;;0.79;73.33;96510.28;5025708;28;20702;-80
2023/12/19 04:24:55;;;;;;;3.37;2.00;;;;;;;0.81;73.48;96513.63;5028174;28;20217;-80
2023/12/19 04:27:21;;;;;;;2.37;2.13;;;;;;;0.80;73.23;96514.53;5011469;28;20193;-79
2023/12/19 04:29:46;;;;;;;2.07;1.73;;;;;;;0.72;73.38;96514.84;5031415;28;20608;-79
2023/12/19 04:32:13;;;;;;;2.00;1.80;;;;;;;0.70;74.07;96511.50;5029288;28;20198;-79
2023/12/19 04:34:38;;;;;;;2.80;1.70;;;;;;;0.63;74.10;96497.34;5024198;28;20179;-79
2023/12/19 04:37:04;;;;;;;2.10;1.77;;;;;;;0.58;74.32;96499.25;5032119;28;20207;-79
2023/12/19 04:39:29;;;;;;;3.13;1.90;;;;;;;0.47;75.26;96496.31;5025602;28;20655;-79
2023/12/19 04:41:54;;;;;;;1.67;1.57;;;;;;;0.47;75.04;96492.03;5031939;28;20182;-80
2023/12/19 04:44:20;;;;;;;2.63;1.63;;;;;;;0.47;75.24;96488.63;5021517;28;20674;-80
2023/12/19 04:46:45;;;;;;;2.53;1.83;;;;;;;0.51;75.26;96482.50;5029217;28;20222;-78
2023/12/19 04:49:10;;;;;;;1.73;1.60;;;;;;;0.43;74.71;96477.69;5024478;28;20194;-79
2023/12/19 04:51:36;;;;;;;1.90;1.70;;;;;;;0.41;74.58;96482.03;5028164;28;20657;-79
2023/12/19 04:54:03;;;;;;;2.33;1.53;;;;;;;0.30;75.26;96486.78;5029105;28;20623;-79
2023/12/19 04:56:29;;;;;;;2.37;1.53;;;;;;;0.38;74.63;96471.13;5033139;28;20706;-79
2023/12/19 04:58:54;;;;;;;2.63;1.47;;;;;;;0.37;74.36;96466.91;5022303;28;20182;-79
2023/12/19 05:01:19;;;;;;;2.90;1.70;;;;;;;0.36;74.44;96460.16;5029751;28;20209;-79
2023/12/19 05:03:45;;;;;;;3.03;2.40;;;;;;;0.28;74.50;96453.63;5031789;28;20186;-79
2023/12/19 05:06:19;;;;;;;3.27;2.77;;;;;;;0.34;74.34;96456.81;5034106;28;20242;-79
2023/12/19 05:08:45;;;;;;;2.53;2.17;;;;;;;0.28;74.64;96447.69;5023776;28;20178;-79
2023/12/19 05:11:11;;;;;;;3.20;2.60;;;;;;;0.27;74.22;96449.41;5032311;28;20762;-79
2023/12/19 05:13:37;;;;;;;2.97;2.10;;;;;;;0.31;74.10;96446.72;5024522;28;20183;-79
2023/12/19 05:16:15;;;;;;;2.57;2.10;;;;;;;0.37;72.28;96452.41;5013554;28;20233;-79
2023/12/19 05:18:41;;;;;;;2.67;2.07;;;;;;;0.40;71.89;96454.00;5020176;28;20614;-79
2023/12/19 05:21:08;;;;;;;2.20;2.10;;;;;;;0.47;71.74;96460.53;5029177;28;20206;-79
2023/12/19 05:23:37;;;;;;;2.23;2.03;;;;;;;0.31;72.08;96459.50;5025209;28;20668;-78
2023/12/19 05:26:06;;;;;;;16.57;8.37;;;;;;;0.50;71.05;96453.56;5027388;28;20213;-79
2023/12/19 05:28:34;;;;;;;8.20;5.10;;;;;;;0.44;71.15;96450.41;5028761;28;20675;-79
2023/12/19 05:30:59;;;;;;;6.47;4.80;;;;;;;0.38;72.19;96448.13;5016523;28;20177;-79
2023/12/19 05:33:26;;;;;;;5.90;5.50;;;;;;;0.32;72.14;96446.66;5021810;28;20210;-79
2023/12/19 05:35:51;;;;;;;6.37;4.50;;;;;;;0.22;72.73;96448.75;5028960;28;20217;-78
2023/12/19 05:38:18;;;;;;;4.20;3.23;;;;;;;0.21;72.93;96446.28;5031475;28;20208;-78
2023/12/19 05:40:43;;;;;;;3.50;3.20;;;;;;;0.15;73.08;96433.75;5034469;28;20206;-79
2023/12/19 05:43:09;;;;;;;4.07;3.33;;;;;;;0.07;73.68;96434.06;5022601;28;20187;-79
2023/12/19 05:45:34;;;;;;;3.53;3.23;;;;;;;0.12;73.34;96446.66;5029110;28;20225;-79
2023/12/19 05:48:00;;;;;;;4.20;3.43;;;;;;;0.12;73.75;96452.59;5031037;28;20678;-79
2023/12/19 05:50:25;;;;;;;3.87;3.33;;;;;;;0.11;73.63;96452.66;5027582;28;20707;-79
2023/12/19 05:52:50;;;;;;;6.53;4.77;;;;;;;0.12;73.55;96451.75;5025386;28;20195;-79
2023/12/19 05:55:16;;;;;;;23.03;12.80;;;;;;;-0.02;74.06;96444.63;5028877;28;20202;-79
2023/12/19 05:57:41;;;;;;;19.57;10.37;;;;;;;0.07;73.33;96441.72;5027043;28;20201;-79
2023/12/19 06:00:07;;;;;;;11.57;7.23;;;;;;;0.01;73.30;96443.72;5026595;28;20669;-79
2023/12/19 06:02:33;;;;;;;10.50;6.23;;;;;;;0.06;73.44;96444.34;5029511;28;20190;-78
2023/12/19 06:05:00;;;;;;;11.30;6.83;;;;;;;0.03;73.28;96447.03;5028436;28;20551;-79
2023/12/19 06:07:25;;;;;;;12.70;8.10;;;;;;;0.06;73.35;96465.59;5023196;28;20262;-78
2023/12/19 06:09:51;;;;;;;12.17;8.10;;;;;;;-0.02;73.92;96476.09;5027623;28;20273;-79
2023/12/19 06:12:17;;;;;;;9.50;7.10;;;;;;;-0.04;73.90;96482.19;5027340;28;20207;-79
2023/12/19 06:14:43;;;;;;;7.10;4.20;;;;;;;-0.08;73.91;96486.59;5025158;28;20191;-79
2023/12/19 06:17:08;;;;;;;7.17;6.17;;;;;;;-0.14;75.02;96489.38;5022799;28;20692;-79
2023/12/19 06:19:33;;;;;;;34.17;20.33;;;;;;;-0.10;75.99;96500.28;5026951;28;20196;-78
2023/12/19 06:21:59;;;;;;;11.20;9.17;;;;;;;-0.13;77.25;96492.75;5014843;28;20202;-79
2023/12/19 06:24:24;;;;;;;19.50;14.10;;;;;;;-0.09;77.79;96499.38;5009198;28;20170;-78
2023/12/19 06:26:50;;;;;;;13.53;11.00;;;;;;;-0.04;77.86;96498.31;5039776;28;20313;-79
2023/12/19 06:29:16;;;;;;;10.37;9.27;;;;;;;0.01;78.46;96502.44;5002006;28;20269;-78
2023/12/19 06:31:45;;;;;;;14.63;11.70;;;;;;;0.00;78.50;96509.28;5031964;28;20180;-78
2023/12/19 06:34:11;;;;;;;9.63;7.87;;;;;;;-0.01;79.12;96503.31;5020790;28;20182;-78
2023/12/19 06:36:41;;;;;;;18.00;16.10;;;;;;;-0.07;79.85;96487.41;5029215;28;20210;-79
2023/12/19 06:39:06;;;;;;;9.50;7.60;;;;;;;-0.06;79.80;96484.78;5026718;28;20190;-78
2023/12/19 06:41:31;;;;;;;9.40;7.77;;;;;;;-0.07;79.95;96472.09;5027024;28;20225;-78
2023/12/19 06:43:57;;;;;;;8.63;6.07;;;;;;;-0.07;80.41;96462.72;5025441;28;20186;-78
2023/12/19 06:46:22;;;;;;;7.43;4.63;;;;;;;0.01;79.58;96447.09;5028342;28;20214;-78
2023/12/19 06:48:48;;;;;;;11.37;5.63;;;;;;;-0.02;79.76;96440.34;5024374;28;20194;-78
2023/12/19 06:51:26;;;;;;;10.43;7.07;;;;;;;0.02;79.73;96437.72;5024375;28;20186;-78
2023/12/19 06:53:54;;;;;;;10.83;7.40;;;;;;;-0.24;81.88;96424.25;5016888;28;20201;-78
2023/12/19 06:56:20;;;;;;;10.27;6.67;;;;;;;-0.26;82.73;96431.16;5029703;28;20278;-77
2023/12/19 06:58:45;;;;;;;9.20;6.20;;;;;;;-0.12;82.09;96430.59;5029143;28;20203;-78
2023/12/19 07:01:10;;;;;;;10.97;7.23;;;;;;;-0.12;82.58;96428.84;5012751;28;20650;-78
2023/12/19 07:03:36;;;;;;;10.37;6.93;;;;;;;0.06;81.67;96446.88;5031105;28;20669;-78
2023/12/19 07:06:02;;;;;;;7.93;6.87;;;;;;;-0.01;81.60;96454.78;5014384;28;20603;-76
2023/12/19 07:08:31;;;;;;;6.83;6.13;;;;;;;-0.19;82.32;96462.34;5018976;28;20308;-76
2023/12/19 07:10:57;;;;;;;9.40;6.37;;;;;;;0.06;81.75;96452.00;5027928;28;20679;-78
2023/12/19 07:13:22;;;;;;;6.77;5.77;;;;;;;0.10;81.10;96458.66;5027493;28;20182;-77
2023/12/19 07:15:48;;;;;;;7.73;6.17;;;;;;;0.12;80.27;96467.91;5029621;28;20213;-76
2023/12/19 07:18:13;;;;;;;8.80;6.63;;;;;;;-0.03;81.08;96464.25;5023707;28;20190;-77
2023/12/19 07:20:38;;;;;;;8.97;5.60;;;;;;;-0.04;81.99;96467.69;5031353;28;20202;-78
2023/12/19 07:23:04;;;;;;;7.57;4.90;;;;;;;0.02;82.24;96466.63;5029358;28;20183;-78
2023/12/19 07:25:32;;;;;;;8.37;6.47;;;;;;;0.05;82.19;96460.56;5025494;28;20211;-77
2023/12/19 07:27:57;;;;;;;10.40;8.03;;;;;;;0.02;82.25;96474.28;5034027;28;20189;-78
2023/12/19 07:30:22;;;;;;;10.27;6.97;;;;;;;-0.03;82.56;96465.97;5030030;28;20194;-78
2023/12/19 07:32:50;;;;;;;11.30;7.40;;;;;;;0.06;82.17;96468.16;5023163;28;20194;-77
2023/12/19 07:35:16;;;;;;;11.77;7.50;;;;;;;0.03;82.84;96464.91;5019011;28;20206;-77
2023/12/19 07:37:42;;;;;;;15.37;11.87;;;;;;;0.01;84.13;96461.59;5018510;28;20198;-77
2023/12/19 07:40:10;;;;;;;15.47;10.47;;;;;;;0.05;84.11;96458.81;5027752;28;20212;-77
2023/12/19 07:42:35;;;;;;;14.60;10.07;;;;;;;-0.06;84.63;96466.09;5030083;28;20237;-79
2023/12/19 07:45:02;;;;;;;13.07;9.93;;;;;;;0.05;85.35;96465.66;5018003;28;20204;-76
2023/12/19 07:47:28;;;;;;;15.93;10.80;;;;;;;0.20;84.79;96465.06;5032136;28;20372;-78
2023/12/19 07:49:53;;;;;;;22.77;13.07;;;;;;;0.25;84.52;96448.63;5007619;28;20284;-78
2023/12/19 07:52:18;;;;;;;17.80;13.27;;;;;;;0.24;85.02;96441.84;5028445;28;20182;-77
2023/12/19 07:54:44;;;;;;;18.00;12.93;;;;;;;0.23;84.68;96460.63;5022519;28;20189;-78
2023/12/19 07:57:09;;;;;;;17.80;12.73;;;;;;;0.26;85.36;96449.44;5016199;28;20179;-79
2023/12/19 07:59:35;;;;;;;20.47;13.27;;;;;;;0.25;85.13;96443.50;5008061;28;20179;-77
2023/12/19 08:02:00;;;;;;;17.43;12.33;;;;;;;0.46;85.06;96435.88;5016944;28;20634;-78
2023/12/19 08:04:25;;;;;;;17.47;12.87;;;;;;;0.46;84.20;96435.88;5024951;28;20182;-77
2023/12/19 08:06:54;;;;;;;19.67;13.37;;;;;;;0.61;84.34;96434.38;5021713;28;20693;-78
2023/12/19 08:09:19;;;;;;;18.90;13.33;;;;;;;0.50;84.78;96435.66;5020994;28;20648;-77
2023/12/19 08:11:44;;;;;;;19.33;13.90;;;;;;;0.26;85.23;96437.50;5006921;28;20176;-79
2023/12/19 08:14:10;;;;;;;16.57;12.60;;;;;;;0.56;84.73;96432.84;5016769;28;20653;-81
2023/12/19 08:16:36;;;;;;;16.23;11.57;;;;;;;0.56;83.83;96440.53;5003376;28;20610;-78
2023/12/19 08:19:01;;;;;;;15.73;12.03;;;;;;;0.62;84.00;96436.03;5025244;28;20591;-79
2023/12/19 08:21:26;;;;;;;18.30;12.97;;;;;;;0.55;84.14;96440.59;5031264;28;20210;-79
2023/12/19 08:23:52;;;;;;;16.97;12.27;;;;;;;0.48;85.77;96434.91;5021515;28;20183;-78
2023/12/19 08:26:17;;;;;;;17.47;12.23;;;;;;;0.52;84.65;96428.75;5017393;28;20321;-79
2023/12/19 08:28:43;;;;;;;20.70;14.70;;;;;;;0.64;84.81;96439.38;5022947;28;20629;-78
2023/12/19 08:31:09;;;;;;;20.07;14.80;;;;;;;0.71;84.33;96428.81;5031608;28;20711;-78
2023/12/19 08:33:35;;;;;;;21.83;14.20;;;;;;;0.75;84.26;96421.84;5016347;28;20728;-78
2023/12/19 08:36:00;;;;;;;21.03;15.27;;;;;;;0.55;85.45;96420.97;5028305;28;20564;-78
2023/12/19 08:38:25;;;;;;;21.90;14.87;;;;;;;0.52;85.40;96422.81;5016671;28;20186;-80
2023/12/19 08:40:51;;;;;;;23.73;16.37;;;;;;;0.85;84.73;96426.47;5021926;28;20306;-78
2023/12/19 08:43:19;;;;;;;23.70;16.43;;;;;;;1.02;83.71;96419.78;5002877;28;20249;-78
2023/12/19 08:45:45;;;;;;;21.27;14.10;;;;;;;0.97;83.53;96424.28;5003494;28;20202;-77
2023/12/19 08:48:12;;;;;;;18.37;13.37;;;;;;;0.94;83.33;96424.41;5016964;28;20271;-78
2023/12/19 08:50:37;;;;;;;19.57;13.33;;;;;;;1.13;83.21;96413.28;5025777;28;20182;-77
2023/12/19 08:53:03;;;;;;;18.10;12.07;;;;;;;1.33;82.46;96416.69;5027041;28;20187;-78
2023/12/19 08:55:30;;;;;;;18.03;13.83;;;;;;;1.18;82.06;96407.97;5005215;28;20861;-79
2023/12/19 08:57:55;;;;;;;19.40;13.30;;;;;;;1.16;82.72;96399.56;5020457;28;20259;-77
2023/12/19 09:00:22;;;;;;;19.20;13.77;;;;;;;1.33;82.37;96409.00;5010615;28;20249;-78
2023/12/19 09:02:48;;;;;;;17.57;12.97;;;;;;;1.43;81.67;96402.56;5032303;28;20183;-77
2023/12/19 09:05:18;;;;;;;22.00;15.83;;;;;;;1.52;82.00;96397.03;5024746;28;20211;-77
2023/12/19 09:07:46;;;;;;;23.73;15.90;;;;;;;1.55;81.26;96399.44;5022920;28;20179;-77
2023/12/19 09:10:12;;;;;;;20.27;14.37;;;;;;;1.60;80.71;96404.34;5005025;28;20174;-78
2023/12/19 09:12:38;;;;;;;22.40;14.10;;;;;;;1.59;81.24;96393.28;5007983;28;20186;-79
2023/12/19 09:15:06;;;;;;;21.33;15.70;;;;;;;1.60;81.31;96394.09;5015200;28;20656;-80
2023/12/19 09:17:31;;;;;;;20.97;14.73;;;;;;;1.78;80.43;96390.66;5016627;28;20533;-80
2023/12/19 09:19:56;;;;;;;23.63;16.50;;;;;;;1.83;80.15;96390.44;5029060;28;20260;-79
2023/12/19 09:22:22;;;;;;;20.50;16.20;;;;;;;1.90;80.25;96384.94;5014970;28;20193;-84
2023/12/19 09:24:48;;;;;;;32.40;21.37;;;;;;;1.48;81.10;96385.25;5012225;28;20202;-79
2023/12/19 09:27:13;;;;;;;17.50;12.87;;;;;;;1.82;79.89;96384.47;5012812;28;20269;-83
2023/12/19 09:29:40;;;;;;;31.73;18.93;;;;;;;1.66;80.39;96393.78;5025351;28;20565;-79
2023/12/19 09:32:07;;;;;;;17.40;12.40;;;;;;;1.55;80.79;96406.28;5016958;28;20218;-79
2023/12/19 09:34:32;;;;;;;16.93;12.30;;;;;;;1.20;81.29;96418.97;5007180;28;20187;-78
2023/12/19 09:36:58;;;;;;;18.53;13.37;;;;;;;0.40;85.11;96413.94;5036546;28;20264;-80
2023/12/19 09:39:23;;;;;;;18.93;12.73;;;;;;;0.82;84.33;96420.69;5016355;28;20222;-80
2023/12/19 09:41:49;;;;;;;65.47;15.30;;;;;;;0.54;85.47;96434.66;5025524;28;20667;-79
2023/12/19 09:44:15;;;;;;;28.93;14.03;;;;;;;0.55;86.00;96422.69;5020468;28;20179;-79
2023/12/19 09:46:41;;;;;;;19.00;13.70;;;;;;;0.71;85.14;96428.81;5019020;28;20715;-79
2023/12/19 09:49:09;;;;;;;20.73;14.80;;;;;;;0.69;85.35;96415.25;5026703;28;20170;-79
2023/12/19 09:51:37;;;;;;;21.63;14.00;;;;;;;0.61;86.53;96406.25;5001790;28;20187;-79
2023/12/19 09:54:03;;;;;;;22.27;14.67;;;;;;;0.70;86.17;96396.47;5013436;28;20178;-79
2023/12/19 09:56:28;;;;;;;22.40;14.83;;;;;;;0.65;85.93;96375.41;5001140;28;20202;-79
2023/12/19 09:58:55;;;;;;;21.67;15.23;;;;;;;0.95;85.62;96382.59;5017547;28;20193;-79
2023/12/19 10:01:20;;;;;;;21.77;16.63;;;;;;;1.01;85.35;96379.78;5007857;28;20190;-80
2023/12/19 10:03:46;;;;;;;21.23;15.20;;;;;;;1.08;84.79;96393.94;5017627;28;20285;-80
2023/12/19 10:06:11;;;;;;;20.03;15.10;;;;;;;1.07;84.89;96407.63;5031028;28;20209;-78
2023/12/19 10:08:43;;;;;;;19.17;13.10;;;;;;;1.18;84.42;96397.75;5024502;28;20262;-79
2023/12/19 10:11:09;;;;;;;20.67;13.10;;;;;;;1.15;84.46;96390.22;5022065;28;20180;-78
2023/12/19 10:13:35;;;;;;;16.83;12.67;;;;;;;1.03;84.43;96396.69;5013938;28;20198;-79
2023/12/19 10:16:08;;;;;;;25.00;19.00;;;;;;;1.04;84.35;96397.53;5026871;28;20293;-79
2023/12/19 10:18:35;;;;;;;21.83;16.53;;;;;;;1.01;84.58;96388.28;5000238;28;20187;-78
2023/12/19 10:21:08;;;;;;;20.40;14.57;;;;;;;1.04;84.75;96384.75;5030848;28;20198;-79
2023/12/19 10:23:43;;;;;;;19.43;15.17;;;;;;;0.77;85.30;96377.41;5024786;28;20210;-78
2023/12/19 10:26:09;;;;;;;29.10;25.13;;;;;;;0.90;84.96;96370.03;5028850;28;20280;-79
2023/12/19 10:28:35;;;;;;;25.30;20.33;;;;;;;1.17;84.76;96364.56;5002597;28;20183;-79
2023/12/19 10:31:12;;;;;;;27.50;19.77;;;;;;;1.28;83.84;96355.47;5015008;28;20520;-79
2023/12/19 10:33:49;;;;;;;29.83;23.13;;;;;;;1.18;83.92;96358.53;5026341;28;20191;-79
2023/12/19 10:36:28;;;;;;;27.70;22.77;;;;;;;1.16;84.09;96343.25;5001962;28;20195;-80
2023/12/19 10:38:55;;;;;;;30.73;20.57;;;;;;;1.22;84.22;96339.56;5017685;28;20205;-80
2023/12/19 10:41:23;;;;;;;25.37;17.57;;;;;;;1.29;83.72;96336.66;5031229;28;20203;-80
2023/12/19 10:43:53;;;;;;;18.87;13.40;;;;;;;0.90;84.87;96335.97;5003425;28;20191;-79
2023/12/19 10:46:24;;;;;;;18.97;13.90;;;;;;;1.10;83.78;96331.56;5035425;28;20194;-80
2023/12/19 10:48:49;;;;;;;16.33;13.63;;;;;;;1.17;83.75;96326.19;5029978;28;20179;-79
2023/12/19 10:51:19;;;;;;;19.33;13.80;;;;;;;1.29;83.19;96328.97;5025156;28;20182;-80
2023/12/19 10:53:58;;;;;;;18.63;13.03;;;;;;;1.12;83.56;96324.66;5011991;28;20208;-79
2023/12/19 10:56:24;;;;;;;17.77;13.30;;;;;;;0.96;84.81;96335.66;5030662;28;20198;-79
2023/12/19 10:58:58;;;;;;;20.50;13.50;;;;;;;1.13;84.43;96323.75;5030227;28;20186;-79
2023/12/19 11:01:25;;;;;;;18.83;12.67;;;;;;;1.08;84.05;96306.97;5029458;28;20191;-80
2023/12/19 11:03:56;;;;;;;16.70;12.87;;;;;;;1.06;83.74;96283.16;5028880;28;20188;-80
2023/12/19 11:06:23;;;;;;;17.27;12.80;;;;;;;1.03;83.49;96294.38;5013753;28;20206;-80
2023/12/19 11:08:49;;;;;;;19.73;13.90;;;;;;;1.04;84.13;96280.69;5001185;28;20187;-79
2023/12/19 11:11:25;;;;;;;18.13;13.63;;;;;;;0.81;84.69;96286.91;5020784;28;20179;-80
2023/12/19 11:13:51;;;;;;;17.73;13.67;;;;;;;1.09;84.52;96283.88;5032202;28;20225;-80
2023/12/19 11:16:22;;;;;;;16.67;12.20;;;;;;;1.14;83.51;96306.66;5029077;28;20217;-80
2023/12/19 11:18:57;;;;;;;18.20;12.07;;;;;;;1.38;83.25;96294.44;5027421;28;20183;-79
2023/12/19 11:21:42;;;;;;;17.50;13.33;;;;;;;1.68;82.37;96302.41;5041118;28;20285;-79
2023/12/19 11:24:11;;;;;;;17.97;11.83;;;;;;;1.76;81.97;96296.88;5010634;28;20198;-79
2023/12/19 11:26:41;;;;;;;15.57;11.80;;;;;;;1.61;81.34;96290.78;5028407;28;20203;-79
2023/12/19 11:29:06;;;;;;;16.20;11.23;;;;;;;1.79;81.47;96287.31;5025531;28;20210;-79